Time;durP1;ratioP1;P1;durP2;ratioP2;P2;SDS_P1;SDS_P2;PMS_P1;PMS_P2;Temp;Humidity;BMP_temperature;BMP_pressure;BME280_temperature;BME280_humidity;BME280_pressure;Samples;Min_cycle;Max_cycle;Signal;HPM_P1;HPM_P2
2022/01/25 00:09:05;;;;;;;;;;;;;;;14.70;56.77;103168.34;1056541;28;1105;-59
2022/01/25 00:24:19;;;;;;;;;;;;;;;14.72;56.45;103163.78;1056087;28;1565;-60
2022/01/25 00:24:19;;;;;;;;;;;;;;;14.73;56.35;103170.03;1057745;28;1928;-61
2022/01/25 00:24:29;;;;;;;;;;;;;;;14.70;56.35;103168.34;1057899;28;1981;-59
2022/01/25 00:26:18;;;;;;;;;;;;;;;14.71;56.58;103164.72;1056821;28;1565;-58
2022/01/25 00:26:35;;;;;;;;;;;;;;;14.70;56.91;103167.47;1054915;28;1529;-58
2022/01/25 00:27:40;;;;;;;;;;;;;;;14.69;56.43;103161.25;1057096;28;1487;-59
2022/01/25 00:29:59;;;;;;;;;;;;;;;14.67;56.48;103164.97;1056818;28;1912;-59
2022/01/25 00:30:58;;;;;;;;;;;;;;;14.66;56.43;103171.28;1057937;28;1471;-59
2022/01/25 00:31:49;;;;;;;;;;;;;;;14.66;56.62;103169.47;1056640;28;1471;-58
2022/01/25 00:32:39;;;;;;;;;;;;;;;14.65;56.45;103167.72;1055149;28;1549;-58
2022/01/25 00:33:30;;;;;;;;;;;;;;;14.66;56.31;103169.47;1057964;28;1443;-58
2022/01/25 00:34:20;;;;;;;;;;;;;;;14.65;56.64;103167.72;1054991;28;1649;-58
2022/01/25 00:35:11;;;;;;;;;;;;;;;14.64;56.00;103165.97;1057752;28;1548;-58
2022/01/25 00:36:01;;;;;;;;;;;;;;;14.64;56.46;103165.97;1054894;28;1441;-58
2022/01/25 00:36:51;;;;;;;;;;;;;;;14.64;55.80;103162.41;1057504;28;1625;-58
2022/01/25 00:37:42;;;;;;;;;;;;;;;14.63;55.92;103174.97;1057248;27;1691;-57
2022/01/25 00:38:32;;;;;;;;;;;;;;;14.63;56.25;103163.34;1056705;28;1454;-58
2022/01/25 00:39:23;;;;;;;;;;;;;;;14.62;56.19;103167.84;1056465;28;1554;-58
2022/01/25 00:40:13;;;;;;;;;;;;;;;14.63;56.23;103172.28;1056850;28;1508;-57
2022/01/25 00:41:03;;;;;;;;;;;;;;;14.61;56.23;103166.09;1057568;27;1664;-58
2022/01/25 00:41:54;;;;;;;;;;;;;;;14.62;56.48;103166.97;1054316;28;1403;-56
2022/01/25 00:42:44;;;;;;;;;;;;;;;14.60;56.56;103167.03;1057032;28;1372;-58
2022/01/25 00:43:35;;;;;;;;;;;;;;;14.58;56.66;103153.69;1056817;28;1638;-58
2022/01/25 00:44:30;;;;;;;;;;;;;;;14.59;55.75;103157.25;1057190;28;1414;-59
2022/01/25 00:45:22;;;;;;;;;;;;;;;14.58;56.36;103153.69;1055290;28;1570;-59
2022/01/25 00:46:12;;;;;;;;;;;;;;;14.60;56.27;103159.00;1056899;28;1643;-58
2022/01/25 00:47:05;;;;;;;;;;;;;;;14.58;55.44;103164.41;1055729;28;1519;-59
2022/01/25 00:47:55;;;;;;;;;;;;;;;14.59;56.04;103166.16;1052985;28;1646;-59
2022/01/25 00:48:49;;;;;;;;;;;;;;;14.59;55.98;103159.94;1052932;28;1586;-58
2022/01/25 00:49:40;;;;;;;;;;;;;;;14.60;55.82;103159.00;1055854;28;1624;-59
2022/01/25 00:50:41;;;;;;;;;;;;;;;14.58;55.90;103155.50;1057363;28;1379;-59
2022/01/25 00:54:40;;;;;;;;;;;;;;;14.57;55.91;103161.81;1054913;28;1961;-59
2022/01/25 00:55:31;;;;;;;;;;;;;;;14.56;55.54;103162.75;1057249;28;1543;-59
2022/01/25 00:56:21;;;;;;;;;;;;;;;14.57;55.79;103167.16;1055569;28;1620;-59
2022/01/25 00:57:12;;;;;;;;;;;;;;;14.56;56.17;103170.78;1058732;27;1547;-58
2022/01/25 00:58:02;;;;;;;;;;;;;;;14.56;55.82;103168.09;1056822;28;1608;-59
2022/01/25 00:58:53;;;;;;;;;;;;;;;14.58;55.71;103163.53;1058688;27;1435;-59
2022/01/25 00:59:43;;;;;;;;;;;;;;;14.57;56.35;103165.34;1056919;28;1667;-59
2022/01/25 01:00:34;;;;;;;;;;;;;;;14.57;56.01;103167.16;1053677;28;1550;-59
2022/01/25 01:01:24;;;;;;;;;;;;;;;14.56;56.00;103168.97;1056380;28;1692;-59
2022/01/25 01:02:14;;;;;;;;;;;;;;;14.53;56.12;103169.09;1056821;28;1341;-59
2022/01/25 01:03:05;;;;;;;;;;;;;;;14.52;56.09;103153.94;1057812;27;1561;-59
2022/01/25 01:03:55;;;;;;;;;;;;;;;14.53;55.61;103160.19;1056858;28;1545;-59
2022/01/25 01:04:46;;;;;;;;;;;;;;;14.52;56.19;103153.06;1056063;28;1648;-59
2022/01/25 01:05:38;;;;;;;;;;;;;;;14.52;55.70;103162.00;1055431;28;1417;-58
2022/01/25 01:06:29;;;;;;;;;;;;;;;14.52;56.33;103153.06;1052654;28;1665;-59
2022/01/25 01:07:19;;;;;;;;;;;;;;;14.52;55.17;103153.94;1050449;28;1473;-59
2022/01/25 01:08:10;;;;;;;;;;;;;;;14.54;55.47;103156.56;1054576;28;699;-58
2022/01/25 01:09:00;;;;;;;;;;;;;;;14.52;56.05;103150.41;1054547;28;785;-58
2022/01/25 01:09:52;;;;;;;;;;;;;;;14.51;55.41;103146.00;1054212;28;735;-59
2022/01/25 01:10:43;;;;;;;;;;;;;;;14.50;55.56;103149.63;1054165;28;649;-58
2022/01/25 01:11:39;;;;;;;;;;;;;;;14.52;55.70;103147.72;1054050;28;774;-59
2022/01/25 01:13:37;;;;;;;;;;;;;;;14.52;55.76;103153.06;1054042;28;798;-59
2022/01/25 01:15:48;;;;;;;;;;;;;;;14.50;55.32;103155.84;1054598;28;901;-58
2022/01/25 01:29:36;;;;;;;;;;;;;;;14.44;55.28;103139.16;1054587;28;704;-59
2022/01/25 01:31:49;;;;;;;;;;;;;;;14.43;55.22;103132.03;1054571;28;633;-59
2022/01/25 01:35:43;;;;;;;;;;;;;;;14.42;55.74;103124.94;1042293;28;713;-59
2022/01/25 01:37:47;;;;;;;;;;;;;;;14.41;55.00;103132.09;1043190;28;1108;-59
2022/01/25 01:39:13;;;;;;;;;;;;;;;14.42;55.97;103136.53;1051587;28;914;-59
2022/01/25 01:41:07;;;;;;;;;;;;;;;14.40;55.66;103132.13;1054533;28;748;-59
2022/01/25 01:44:16;;;;;;;;;;;;;;;14.37;55.96;103132.28;1056012;27;1817;-59
2022/01/25 01:45:23;;;;;;;;;;;;;;;14.38;55.66;103139.38;1058258;28;700;-59
2022/01/25 01:47:08;;;;;;;;;;;;;;;14.39;55.36;103135.75;1058772;27;753;-59
2022/01/25 01:48:08;;;;;;;;;;;;;;;14.40;55.29;103141.09;1057526;28;727;-59
2022/01/25 01:49:01;;;;;;;;;;;;;;;14.39;55.18;103135.75;1057598;28;831;-59
2022/01/25 01:49:52;;;;;;;;;;;;;;;14.37;55.17;103133.16;1058167;28;711;-59
2022/01/25 01:50:42;;;;;;;;;;;;;;;14.39;55.25;103139.31;1058871;28;814;-60
2022/01/25 01:51:35;;;;;;;;;;;;;;;14.38;54.57;103134.88;1058920;27;714;-59
2022/01/25 01:52:27;;;;;;;;;;;;;;;14.36;54.97;103134.09;1057666;28;958;-59
2022/01/25 01:53:18;;;;;;;;;;;;;;;14.35;55.67;103135.00;1057858;28;979;-59
2022/01/25 01:54:08;;;;;;;;;;;;;;;14.37;54.92;103134.94;1057462;28;671;-60
2022/01/25 01:54:58;;;;;;;;;;;;;;;14.37;54.74;103137.63;1057703;28;914;-59
2022/01/25 01:55:49;;;;;;;;;;;;;;;14.36;55.21;103135.88;1053618;28;716;-59
2022/01/25 01:56:39;;;;;;;;;;;;;;;14.35;55.29;103136.81;1054835;28;653;-59
2022/01/25 01:57:30;;;;;;;;;;;;;;;14.36;55.32;103135.88;1058531;28;708;-59
2022/01/25 01:58:20;;;;;;;;;;;;;;;14.34;55.22;103137.75;1057593;28;749;-59
2022/01/25 01:59:10;;;;;;;;;;;;;;;14.34;55.16;103135.09;1057601;28;832;-59
2022/01/25 02:00:01;;;;;;;;;;;;;;;14.34;55.56;103137.75;1058827;28;801;-59
2022/01/25 02:00:51;;;;;;;;;;;;;;;14.34;55.55;103137.75;1057651;28;680;-59
2022/01/25 02:01:42;;;;;;;;;;;;;;;14.34;55.37;103132.41;1057720;28;923;-59
2022/01/25 02:02:32;;;;;;;;;;;;;;;14.34;55.30;103124.34;1058797;28;660;-59
2022/01/25 02:03:23;;;;;;;;;;;;;;;14.33;55.18;103120.78;1058700;28;793;-59
2022/01/25 02:04:13;;;;;;;;;;;;;;;14.33;55.23;103130.69;1058705;28;738;-59
2022/01/25 02:05:03;;;;;;;;;;;;;;;14.32;55.47;103127.13;1055869;28;1694;-59
2022/01/25 02:05:54;;;;;;;;;;;;;;;14.31;54.91;103121.84;1057368;28;705;-60
2022/01/25 02:06:44;;;;;;;;;;;;;;;14.31;55.57;103130.75;1057564;28;665;-60
2022/01/25 02:07:35;;;;;;;;;;;;;;;14.33;54.95;103125.31;1057641;28;983;-59
2022/01/25 02:08:25;;;;;;;;;;;;;;;14.32;55.26;103124.44;1057537;28;634;-60
2022/01/25 02:09:15;;;;;;;;;;;;;;;14.32;54.99;103126.25;1057678;28;715;-59
2022/01/25 02:10:06;;;;;;;;;;;;;;;14.32;55.08;103129.81;1057448;28;715;-60
2022/01/25 02:10:56;;;;;;;;;;;;;;;14.32;55.19;103134.31;1057550;28;803;-60
2022/01/25 02:11:47;;;;;;;;;;;;;;;14.32;55.11;103131.63;1057949;28;832;-60
2022/01/25 02:12:37;;;;;;;;;;;;;;;14.31;54.75;103129.88;1058017;28;801;-59
2022/01/25 02:13:28;;;;;;;;;;;;;;;14.31;54.60;103128.06;1058175;28;647;-60
2022/01/25 02:14:18;;;;;;;;;;;;;;;14.32;54.46;103128.94;1057461;28;786;-59
2022/01/25 02:15:08;;;;;;;;;;;;;;;14.32;54.76;103126.25;1058071;28;799;-60
2022/01/25 02:16:03;;;;;;;;;;;;;;;14.32;54.97;103137.00;1057895;28;864;-59
2022/01/25 02:22:26;;;;;;;;;;;;;;;14.28;55.49;103122.84;1058378;28;1280;-59
2022/01/25 02:23:19;;;;;;;;;;;;;;;14.28;54.75;103120.16;1058208;28;738;-60
2022/01/25 02:24:10;;;;;;;;;;;;;;;14.28;55.22;103121.97;1057857;28;854;-60
2022/01/25 02:25:00;;;;;;;;;;;;;;;14.28;55.06;103127.31;1057418;28;747;-60
2022/01/25 02:25:51;;;;;;;;;;;;;;;14.25;55.11;103123.84;1053543;28;700;-60
2022/01/25 02:26:41;;;;;;;;;;;;;;;14.27;55.43;103120.22;1053504;28;787;-59
2022/01/25 02:27:32;;;;;;;;;;;;;;;14.27;54.66;103128.25;1057706;28;1114;-60
2022/01/25 02:28:22;;;;;;;;;;;;;;;14.27;54.70;103128.25;1057938;28;844;-59
2022/01/25 02:29:13;;;;;;;;;;;;;;;14.27;54.77;103125.59;1057088;28;721;-59
2022/01/25 02:30:03;;;;;;;;;;;;;;;14.24;54.97;103124.78;1058590;28;805;-59
2022/01/25 02:30:53;;;;;;;;;;;;;;;14.24;55.58;103122.09;1057891;28;807;-59
2022/01/25 02:31:44;;;;;;;;;;;;;;;14.24;55.42;103122.09;1058082;28;686;-59
2022/01/25 02:32:34;;;;;;;;;;;;;;;14.24;55.22;103127.47;1053450;28;746;-59
2022/01/25 02:33:25;;;;;;;;;;;;;;;14.24;55.30;103127.47;1053309;28;1769;-59
2022/01/25 02:34:15;;;;;;;;;;;;;;;14.23;54.80;103133.75;1057957;28;645;-59
2022/01/25 02:35:05;;;;;;;;;;;;;;;14.23;54.89;103136.44;1057469;28;758;-59
2022/01/25 02:35:56;;;;;;;;;;;;;;;14.24;55.28;103131.94;1057972;28;696;-59
2022/01/25 02:36:46;;;;;;;;;;;;;;;14.26;55.24;103130.06;1057398;28;940;-58
2022/01/25 02:37:38;;;;;;;;;;;;;;;14.26;55.34;103127.41;1057595;28;618;-59
2022/01/25 02:38:28;;;;;;;;;;;;;;;14.26;54.50;103135.44;1058009;28;666;-59
2022/01/25 02:39:19;;;;;;;;;;;;;;;14.24;55.03;103126.59;1057552;28;774;-59
2022/01/25 02:40:09;;;;;;;;;;;;;;;14.23;54.79;103125.72;1057355;28;702;-59
2022/01/25 02:40:59;;;;;;;;;;;;;;;14.23;55.20;103124.84;1057992;28;932;-59
2022/01/25 02:41:50;;;;;;;;;;;;;;;14.24;55.28;103126.59;1057920;28;680;-59
2022/01/25 02:42:40;;;;;;;;;;;;;;;14.24;55.34;103131.94;1057912;28;725;-59
2022/01/25 02:43:34;;;;;;;;;;;;;;;14.23;54.90;103128.41;1058082;28;703;-59
2022/01/25 02:44:26;;;;;;;;;;;;;;;14.23;54.74;103128.41;1057890;28;625;-59
2022/01/25 02:45:17;;;;;;;;;;;;;;;14.24;55.11;103130.13;1057991;28;787;-59
2022/01/25 02:49:03;;;;;;;;;;;;;;;14.22;54.63;103134.69;1059123;27;781;-59
2022/01/25 02:49:53;;;;;;;;;;;;;;;14.22;55.03;103132.00;1057972;28;721;-58
2022/01/25 02:50:44;;;;;;;;;;;;;;;14.22;55.36;103136.50;1052924;28;1726;-59
2022/01/25 02:51:34;;;;;;;;;;;;;;;14.22;54.77;103133.81;1054490;28;1134;-59
2022/01/25 02:52:24;;;;;;;;;;;;;;;14.22;55.02;103134.69;1058403;28;828;-59
2022/01/25 02:53:15;;;;;;;;;;;;;;;14.21;54.65;103121.34;1057778;28;760;-59
2022/01/25 02:54:07;;;;;;;;;;;;;;;14.20;54.64;103131.22;1057885;28;647;-59
2022/01/25 02:54:57;;;;;;;;;;;;;;;14.18;55.34;103127.72;1057270;28;1917;-59
2022/01/25 02:55:48;;;;;;;;;;;;;;;14.20;54.90;103131.22;1057796;28;841;-59
2022/01/25 02:56:38;;;;;;;;;;;;;;;14.18;55.42;103122.34;1057974;28;692;-59
2022/01/25 02:57:29;;;;;;;;;;;;;;;14.19;55.29;103124.09;1057694;28;1550;-59
2022/01/25 02:58:19;;;;;;;;;;;;;;;14.20;54.36;103120.47;1057907;28;754;-59
2022/01/25 02:59:10;;;;;;;;;;;;;;;14.19;54.51;103117.88;1058252;28;1796;-59
2022/01/25 03:00:00;;;;;;;;;;;;;;;14.18;54.20;103114.31;1057724;28;978;-59
2022/01/25 03:00:50;;;;;;;;;;;;;;;14.17;55.17;103117.06;1058037;28;763;-59
2022/01/25 03:01:41;;;;;;;;;;;;;;;14.17;55.42;103117.06;1057850;28;846;-59
2022/01/25 03:02:31;;;;;;;;;;;;;;;14.15;55.23;103111.75;1057324;28;708;-59
2022/01/25 03:03:22;;;;;;;;;;;;;;;14.17;54.67;103107.19;1057527;28;768;-59
2022/01/25 03:04:12;;;;;;;;;;;;;;;14.15;55.33;103114.44;1056602;28;789;-60
2022/01/25 03:05:02;;;;;;;;;;;;;;;14.15;54.61;103111.75;1057950;28;719;-59
2022/01/25 03:05:53;;;;;;;;;;;;;;;14.15;54.73;103110.91;1057693;28;847;-60
2022/01/25 03:06:43;;;;;;;;;;;;;;;14.14;54.85;103104.69;1057362;28;661;-60
2022/01/25 03:09:34;;;;;;;;;;;;;;;14.15;55.32;103114.44;1044547;23;2248;-59
2022/01/25 03:10:25;;;;;;;;;;;;;;;14.15;54.94;103117.13;1039859;28;1424;-59
2022/01/25 03:11:15;;;;;;;;;;;;;;;14.17;54.94;103117.06;1041597;28;1419;-58
2022/01/25 03:12:07;;;;;;;;;;;;;;;14.14;54.82;103110.03;1040083;28;1740;-59
2022/01/25 03:12:58;;;;;;;;;;;;;;;14.17;54.77;103117.06;1038219;28;795;-59
2022/01/25 03:13:55;;;;;;;;;;;;;;;14.15;55.16;103114.44;1040973;28;1714;-59
2022/01/25 03:15:11;;;;;;;;;;;;;;;14.15;55.29;103118.97;1041794;28;1963;-60
2022/01/25 03:16:03;;;;;;;;;;;;;;;14.13;55.20;103112.78;1041695;28;862;-60
2022/01/25 03:17:58;;;;;;;;;;;;;;;14.12;54.67;103111.91;1040693;28;1576;-60
2022/01/25 03:18:49;;;;;;;;;;;;;;;14.13;54.37;103108.31;1037002;28;872;-59
2022/01/25 03:20:52;;;;;;;;;;;;;;;14.13;54.47;103110.09;1037669;28;931;-59
2022/01/25 03:21:42;;;;;;;;;;;;;;;14.13;54.73;103107.44;1036406;28;688;-59
2022/01/25 03:22:58;;;;;;;;;;;;;;;14.14;54.53;103115.41;1036610;28;864;-59
2022/01/25 03:23:48;;;;;;;;;;;;;;;14.12;54.64;103114.59;1033111;28;630;-59
2022/01/25 03:24:39;;;;;;;;;;;;;;;14.12;54.39;103114.59;1032027;28;815;-59
2022/01/25 03:25:29;;;;;;;;;;;;;;;14.13;54.48;103112.78;1035795;28;731;-59
2022/01/25 03:26:19;;;;;;;;;;;;;;;14.12;54.61;103117.28;1038642;28;1632;-59
2022/01/25 03:27:10;;;;;;;;;;;;;;;14.11;55.07;103114.66;1041317;28;851;-59
2022/01/25 03:28:00;;;;;;;;;;;;;;;14.10;54.79;103108.44;1037030;28;730;-59
2022/01/25 03:28:51;;;;;;;;;;;;;;;14.10;54.76;103105.75;1038207;28;867;-59
2022/01/25 03:29:41;;;;;;;;;;;;;;;14.11;55.17;103110.16;1038206;28;791;-59
2022/01/25 03:30:32;;;;;;;;;;;;;;;14.11;54.80;103112.84;1038219;28;649;-59
2022/01/25 03:31:22;;;;;;;;;;;;;;;14.09;54.56;103106.69;1038324;28;816;-59
2022/01/25 03:32:12;;;;;;;;;;;;;;;14.09;54.50;103112.03;1041730;28;1737;-60
2022/01/25 03:33:03;;;;;;;;;;;;;;;14.10;54.76;103103.06;1041747;28;746;-60
2022/01/25 03:33:53;;;;;;;;;;;;;;;14.10;54.73;103104.88;1041742;28;751;-61
2022/01/25 03:34:44;;;;;;;;;;;;;;;14.09;54.55;103101.31;1041760;28;1894;-60
2022/01/25 03:35:34;;;;;;;;;;;;;;;14.09;54.59;103095.97;1041679;28;786;-60
2022/01/25 03:36:24;;;;;;;;;;;;;;;14.09;55.15;103095.09;1041735;28;864;-60
2022/01/25 03:37:15;;;;;;;;;;;;;;;14.10;54.47;103102.19;1041724;28;809;-61
2022/01/25 03:38:05;;;;;;;;;;;;;;;14.08;55.09;103099.56;1041746;28;746;-60
2022/01/25 03:38:56;;;;;;;;;;;;;;;14.08;55.16;103098.69;1041768;28;762;-61
2022/01/25 03:39:46;;;;;;;;;;;;;;;14.08;55.17;103096.03;1041809;28;783;-61
2022/01/25 03:40:36;;;;;;;;;;;;;;;14.09;54.87;103095.09;1041678;28;832;-61
2022/01/25 03:41:27;;;;;;;;;;;;;;;14.09;54.57;103105.81;1041793;28;768;-61
2022/01/25 03:42:19;;;;;;;;;;;;;;;14.08;55.00;103099.56;1042175;28;1690;-61
2022/01/25 03:43:10;;;;;;;;;;;;;;;14.07;54.53;103103.19;1041663;28;748;-61
2022/01/25 03:44:00;;;;;;;;;;;;;;;14.09;54.36;103100.44;1037630;28;735;-60
2022/01/25 03:44:51;;;;;;;;;;;;;;;14.07;55.07;103099.63;1036598;28;613;-60
2022/01/25 03:45:45;;;;;;;;;;;;;;;14.08;54.84;103099.56;1038228;28;848;-61
2022/01/25 03:46:42;;;;;;;;;;;;;;;14.08;54.95;103104.06;1036541;28;638;-61
2022/01/25 03:47:45;;;;;;;;;;;;;;;14.07;55.19;103096.97;1035813;28;763;-61
2022/01/25 03:50:35;;;;;;;;;;;;;;;14.05;55.23;103093.47;1036397;28;622;-60
2022/01/25 03:51:25;;;;;;;;;;;;;;;14.05;54.29;103098.84;1037141;28;664;-60
2022/01/25 03:52:19;;;;;;;;;;;;;;;14.04;54.80;103095.28;1041363;28;1856;-60
2022/01/25 03:53:09;;;;;;;;;;;;;;;14.06;55.08;103105.94;1041703;28;716;-61
2022/01/25 03:53:59;;;;;;;;;;;;;;;14.06;55.00;103100.56;1041574;28;867;-61
2022/01/25 03:54:50;;;;;;;;;;;;;;;14.05;54.83;103097.03;1041635;28;1891;-61
2022/01/25 03:55:40;;;;;;;;;;;;;;;14.05;55.16;103102.38;1041649;28;734;-61
2022/01/25 03:56:31;;;;;;;;;;;;;;;14.04;54.66;103100.63;1041618;28;649;-62
2022/01/25 03:57:21;;;;;;;;;;;;;;;14.02;54.89;103099.84;1041789;28;830;-61
2022/01/25 03:58:12;;;;;;;;;;;;;;;14.02;54.87;103098.97;1041500;28;811;-62
2022/01/25 03:59:02;;;;;;;;;;;;;;;14.01;54.53;103095.41;1041603;28;778;-62
2022/01/25 03:59:52;;;;;;;;;;;;;;;14.02;54.61;103099.84;1037900;28;742;-62
2022/01/25 04:00:43;;;;;;;;;;;;;;;14.03;54.97;103100.69;1037316;28;653;-62
2022/01/25 04:01:33;;;;;;;;;;;;;;;14.01;54.64;103103.44;1037404;28;716;-61
2022/01/25 04:02:25;;;;;;;;;;;;;;;14.01;54.43;103100.75;1040836;28;1016;-61
2022/01/25 04:03:24;;;;;;;;;;;;;;;14.01;55.08;103100.75;1041686;28;1023;-61
2022/01/25 04:04:18;;;;;;;;;;;;;;;14.02;54.16;103099.84;1040008;28;844;-61
2022/01/25 04:05:19;;;;;;;;;;;;;;;14.01;54.48;103103.44;1040146;28;1360;-61
2022/01/25 04:06:11;;;;;;;;;;;;;;;14.02;54.53;103098.97;1040271;28;766;-61
2022/01/25 04:07:08;;;;;;;;;;;;;;;14.01;54.28;103097.22;1040566;28;1763;-61
2022/01/25 04:07:58;;;;;;;;;;;;;;;14.00;55.09;103099.03;1042501;28;840;-62
2022/01/25 04:08:49;;;;;;;;;;;;;;;14.01;54.71;103100.75;1042486;28;885;-61
2022/01/25 04:09:39;;;;;;;;;;;;;;;14.01;54.87;103100.75;1042347;28;1306;-60
2022/01/25 04:10:30;;;;;;;;;;;;;;;14.02;55.12;103105.19;1041919;28;941;-60
2022/01/25 04:11:20;;;;;;;;;;;;;;;14.00;54.46;103104.38;1044625;28;782;-60
2022/01/25 04:12:13;;;;;;;;;;;;;;;14.01;54.50;103108.81;1046427;28;1733;-60
2022/01/25 04:13:04;;;;;;;;;;;;;;;14.01;54.43;103108.81;1046560;28;779;-61
2022/01/25 04:13:56;;;;;;;;;;;;;;;13.99;54.49;103110.69;1046339;28;1884;-62
2022/01/25 04:14:47;;;;;;;;;;;;;;;13.98;55.08;103108.94;1046495;28;1910;-60
2022/01/25 04:15:41;;;;;;;;;;;;;;;13.98;54.67;103108.94;1046695;28;652;-60
2022/01/25 04:16:40;;;;;;;;;;;;;;;13.98;55.03;103114.31;1046691;28;727;-60
2022/01/25 04:17:33;;;;;;;;;;;;;;;13.98;54.96;103108.94;1046551;28;1010;-60
2022/01/25 04:18:35;;;;;;;;;;;;;;;13.98;54.87;103102.69;1043092;28;716;-60
2022/01/25 04:20:27;;;;;;;;;;;;;;;13.98;54.17;103097.34;1043118;28;738;-59
2022/01/25 04:21:47;;;;;;;;;;;;;;;13.98;54.29;103106.25;1042841;28;811;-60
2022/01/25 04:25:06;;;;;;;;;;;;;;;13.96;54.62;103100.13;1045944;28;716;-60
2022/01/25 04:25:56;;;;;;;;;;;;;;;13.97;55.00;103101.88;1046414;28;1031;-60
2022/01/25 04:26:47;;;;;;;;;;;;;;;13.96;54.83;103096.56;1046535;28;784;-60
2022/01/25 04:27:37;;;;;;;;;;;;;;;13.95;54.85;103095.69;1045978;28;963;-60
2022/01/25 04:28:27;;;;;;;;;;;;;;;13.95;54.75;103095.69;1042461;28;863;-60
2022/01/25 04:29:18;;;;;;;;;;;;;;;13.97;54.74;103095.63;1042306;28;748;-61
2022/01/25 04:30:08;;;;;;;;;;;;;;;13.95;54.95;103089.47;1042345;28;715;-60
2022/01/25 04:30:59;;;;;;;;;;;;;;;13.93;54.79;103094.88;1042379;28;710;-60
2022/01/25 04:31:49;;;;;;;;;;;;;;;13.94;55.16;103091.28;1042320;28;779;-60
2022/01/25 04:33:43;;;;;;;;;;;;;;;13.95;54.30;103092.13;1038067;28;795;-58
2022/01/25 04:49:21;;;;;;;;;;;;;;;13.90;53.92;103079.81;1030730;28;743;-59
2022/01/25 04:50:18;;;;;;;;;;;;;;;13.92;54.40;103081.53;1031478;28;825;-61
2022/01/25 04:51:38;;;;;;;;;;;;;;;13.92;54.41;103085.09;1039278;28;749;-59
2022/01/25 04:52:34;;;;;;;;;;;;;;;13.90;53.96;103090.53;1038751;28;863;-62
2022/01/25 04:54:34;;;;;;;;;;;;;;;13.89;54.52;103083.41;1046218;28;1003;-59
2022/01/25 04:55:36;;;;;;;;;;;;;;;13.89;54.63;103087.91;1046461;28;617;-59
2022/01/25 04:56:48;;;;;;;;;;;;;;;13.89;54.01;103082.53;1046316;28;748;-59
2022/01/25 04:57:49;;;;;;;;;;;;;;;13.88;54.65;103083.47;1046431;28;715;-59
2022/01/25 04:58:58;;;;;;;;;;;;;;;13.86;54.89;103083.53;1046355;28;906;-60
2022/01/25 05:00:38;;;;;;;;;;;;;;;13.86;54.42;103078.19;1045865;28;758;-59
2022/01/25 05:01:29;;;;;;;;;;;;;;;13.87;54.53;103084.41;1046427;28;671;-58
2022/01/25 05:03:14;;;;;;;;;;;;;;;13.84;54.86;103074.69;1033860;28;860;-59
2022/01/25 05:04:10;;;;;;;;;;;;;;;13.85;54.29;103083.59;1038212;28;843;-58
2022/01/25 05:05:08;;;;;;;;;;;;;;;13.85;54.91;103075.56;1038687;28;955;-58
2022/01/25 05:06:06;;;;;;;;;;;;;;;13.84;54.60;103079.19;1038216;28;806;-59
2022/01/25 05:07:05;;;;;;;;;;;;;;;13.84;54.85;103073.81;1038724;28;925;-59
2022/01/25 05:08:18;;;;;;;;;;;;;;;13.86;54.63;103080.00;1038720;28;762;-58
2022/01/25 05:09:11;;;;;;;;;;;;;;;13.86;54.09;103078.19;1038628;28;891;-58
2022/01/25 05:10:03;;;;;;;;;;;;;;;13.89;54.31;103079.88;1038870;28;733;-58
2022/01/25 05:11:04;;;;;;;;;;;;;;;13.89;54.78;103079.88;1038677;28;791;-60
2022/01/25 05:11:58;;;;;;;;;;;;;;;13.93;54.28;103072.56;1041454;28;1999;-59
2022/01/25 05:12:54;;;;;;;;;;;;;;;13.95;54.53;103073.38;1046469;28;664;-60
2022/01/25 05:13:51;;;;;;;;;;;;;;;13.96;54.25;103080.47;1046468;28;755;-59
2022/01/25 05:14:58;;;;;;;;;;;;;;;13.99;53.78;103073.16;1046347;28;1918;-59
2022/01/25 05:16:03;;;;;;;;;;;;;;;14.04;53.42;103076.50;1046360;28;664;-58
2022/01/25 05:17:03;;;;;;;;;;;;;;;14.09;53.62;103069.16;1046372;28;826;-59
2022/01/25 05:18:13;;;;;;;;;;;;;;;14.17;52.82;103074.16;1037891;28;693;-59
2022/01/25 05:19:20;;;;;;;;;;;;;;;14.20;52.84;103072.22;1038034;28;860;-59
2022/01/25 05:22:30;;;;;;;;;;;;;;;14.34;52.99;103065.34;1038225;28;721;-60
2022/01/25 05:23:21;;;;;;;;;;;;;;;14.37;52.41;103063.41;1038560;28;862;-59
2022/01/25 05:24:11;;;;;;;;;;;;;;;14.42;52.10;103065.91;1046091;28;1848;-58
2022/01/25 05:25:02;;;;;;;;;;;;;;;14.45;52.18;103063.97;1046308;28;711;-60
2022/01/25 05:25:52;;;;;;;;;;;;;;;14.49;51.98;103062.91;1046254;28;918;-60
2022/01/25 05:26:43;;;;;;;;;;;;;;;14.52;52.20;103061.84;1046441;28;703;-58
2022/01/25 05:27:33;;;;;;;;;;;;;;;14.56;52.01;103067.00;1046430;28;698;-59
2022/01/25 05:28:24;;;;;;;;;;;;;;;14.59;52.09;103060.63;1046451;28;648;-59
2022/01/25 05:29:14;;;;;;;;;;;;;;;14.59;51.65;103063.31;1046126;28;735;-59
2022/01/25 05:30:04;;;;;;;;;;;;;;;14.60;51.67;103059.69;1037751;28;787;-59
2022/01/25 05:30:55;;;;;;;;;;;;;;;14.63;51.57;103067.63;1038217;28;707;-59
2022/01/25 05:31:45;;;;;;;;;;;;;;;14.65;51.46;103072.91;1038143;28;668;-59
2022/01/25 05:32:36;;;;;;;;;;;;;;;14.66;51.38;103074.66;1042144;28;1764;-59
2022/01/25 05:33:26;;;;;;;;;;;;;;;14.67;51.23;103074.59;1042872;28;672;-58
2022/01/25 05:34:17;;;;;;;;;;;;;;;14.68;51.89;103073.66;1042749;28;746;-59
2022/01/25 05:35:07;;;;;;;;;;;;;;;14.70;51.69;103076.22;1042668;28;1906;-58
2022/01/25 05:35:57;;;;;;;;;;;;;;;14.71;51.67;103077.97;1042759;28;802;-58
2022/01/25 05:36:48;;;;;;;;;;;;;;;14.68;52.03;103073.66;1042725;28;672;-58
2022/01/25 05:37:41;;;;;;;;;;;;;;;14.71;52.17;103073.47;1042815;28;649;-59
2022/01/25 05:38:32;;;;;;;;;;;;;;;14.70;52.28;103077.09;1042684;28;894;-59
2022/01/25 05:39:28;;;;;;;;;;;;;;;14.71;51.63;103081.53;1042600;28;1366;-61
2022/01/25 05:40:28;;;;;;;;;;;;;;;14.71;51.43;103078.84;1043339;28;1693;-59
2022/01/25 05:41:18;;;;;;;;;;;;;;;14.70;51.81;103079.78;1046312;28;785;-59
2022/01/25 05:42:42;;;;;;;;;;;;;;;14.71;51.44;103073.47;1046326;28;787;-61
2022/01/25 05:45:59;;;;;;;;;;;;;;;14.74;51.41;103070.66;1045728;28;649;-59
2022/01/25 05:47:46;;;;;;;;;;;;;;;14.75;51.44;103074.22;1045697;28;637;-59
2022/01/25 05:48:36;;;;;;;;;;;;;;;14.75;51.98;103074.22;1046225;28;755;-61
2022/01/25 05:49:27;;;;;;;;;;;;;;;14.76;51.58;103070.59;1046271;28;689;-60
2022/01/25 05:50:17;;;;;;;;;;;;;;;14.77;51.69;103078.56;1045589;28;1921;-59
2022/01/25 05:51:07;;;;;;;;;;;;;;;14.78;51.76;103074.94;1042686;28;782;-61
2022/01/25 05:51:58;;;;;;;;;;;;;;;14.77;51.94;103073.19;1042545;28;819;-60
2022/01/25 05:52:48;;;;;;;;;;;;;;;14.78;51.63;103080.31;1042680;28;970;-59
2022/01/25 05:53:42;;;;;;;;;;;;;;;14.78;51.72;103083.00;1042670;28;700;-59
2022/01/25 05:54:32;;;;;;;;;;;;;;;14.78;51.25;103074.94;1042678;28;704;-60
2022/01/25 05:55:23;;;;;;;;;;;;;;;14.81;51.68;103084.66;1042776;28;1108;-60
2022/01/25 05:56:13;;;;;;;;;;;;;;;14.80;51.01;103088.28;1042701;28;752;-59
2022/01/25 05:57:03;;;;;;;;;;;;;;;14.80;51.78;103086.47;1042569;28;857;-60
2022/01/25 05:57:54;;;;;;;;;;;;;;;14.82;51.92;103087.28;1042651;28;771;-60
2022/01/25 05:58:44;;;;;;;;;;;;;;;14.80;51.42;103086.47;1042714;28;617;-60
2022/01/25 05:59:37;;;;;;;;;;;;;;;14.83;51.67;103089.03;1046533;28;723;-61
2022/01/25 06:00:27;;;;;;;;;;;;;;;14.83;51.67;103085.47;1043058;28;832;-58
2022/01/25 06:01:17;;;;;;;;;;;;;;;14.82;51.81;103086.41;1040436;28;1592;-59
2022/01/25 06:02:08;;;;;;;;;;;;;;;14.82;51.38;103089.09;1040404;28;1640;-59
2022/01/25 06:02:58;;;;;;;;;;;;;;;14.82;51.42;103079.22;1041983;28;1555;-59
2022/01/25 06:03:49;;;;;;;;;;;;;;;14.84;51.70;103085.41;1041779;28;1425;-57
2022/01/25 06:04:39;;;;;;;;;;;;;;;14.84;51.77;103080.03;1041982;28;1553;-58
2022/01/25 06:05:30;;;;;;;;;;;;;;;14.85;51.29;103080.91;1042562;28;848;-58
2022/01/25 06:06:20;;;;;;;;;;;;;;;14.94;51.61;103089.38;1042502;28;826;-58
2022/01/25 06:07:10;;;;;;;;;;;;;;;14.90;51.61;103087.78;1042686;28;808;-58
2022/01/25 06:08:01;;;;;;;;;;;;;;;14.91;51.46;103092.19;1042615;28;772;-58
2022/01/25 06:08:51;;;;;;;;;;;;;;;14.89;51.25;103093.22;1042677;28;640;-58
2022/01/25 06:09:42;;;;;;;;;;;;;;;14.87;51.82;103095.97;1042367;28;1331;-56